Time;durP1;ratioP1;P1;durP2;ratioP2;P2;SDS_P1;SDS_P2;PMS_P1;PMS_P2;Temp;Humidity;BMP_temperature;BMP_pressure;BME280_temperature;BME280_humidity;BME280_pressure;Samples;Min_cycle;Max_cycle;Signal;HPM_P1;HPM_P2
2022/08/17 00:00:16;;;;;;;3.88;3.15;;;18.20;17.40;;;;;;5060540;28;35593;-76
2022/08/17 00:02:59;;;;;;;3.47;3.15;;;18.10;17.60;;;;;;5062026;28;34329;-76
2022/08/17 00:05:25;;;;;;;4.45;3.30;;;18.20;20.10;;;;;;5079666;28;34209;-76
2022/08/17 00:07:51;;;;;;;3.92;3.17;;;18.10;17.60;;;;;;5085603;28;34506;-76
2022/08/17 00:10:17;;;;;;;3.40;3.10;;;18.10;17.70;;;;;;5085775;28;34342;-76
2022/08/17 00:12:44;;;;;;;4.82;3.47;;;18.10;17.60;;;;;;5086134;28;35242;-76
2022/08/17 00:15:12;;;;;;;7.63;3.40;;;18.00;17.70;;;;;;5084795;28;34503;-76
2022/08/17 00:17:40;;;;;;;4.22;3.20;;;18.00;17.90;;;;;;5085351;28;34436;-76
2022/08/17 00:20:08;;;;;;;5.20;3.13;;;18.00;18.00;;;;;;5084961;28;35912;-76
2022/08/17 00:22:34;;;;;;;4.88;2.92;;;18.00;17.80;;;;;;5068276;28;34329;-76
2022/08/17 00:25:00;;;;;;;3.40;3.15;;;18.00;17.80;;;;;;5084721;28;34137;-76
2022/08/17 00:27:26;;;;;;;3.47;3.17;;;18.00;17.80;;;;;;5084981;28;34156;-76
2022/08/17 00:29:52;;;;;;;6.82;3.60;;;18.00;17.80;;;;;;5084692;28;35714;-76
2022/08/17 00:32:18;;;;;;;3.95;3.47;;;18.00;18.00;;;;;;5084840;28;34161;-76
2022/08/17 00:34:44;;;;;;;4.20;3.30;;;18.00;18.10;;;;;;5068269;28;34509;-76
2022/08/17 00:37:10;;;;;;;3.42;3.13;;;18.00;18.10;;;;;;5084794;28;34112;-76
2022/08/17 00:39:36;;;;;;;3.42;3.13;;;18.00;18.10;;;;;;5084485;28;35443;-76
2022/08/17 00:42:15;;;;;;;3.53;3.20;;;18.00;18.10;;;;;;5084496;28;34428;-76
2022/08/17 00:44:41;;;;;;;3.92;3.03;;;18.00;19.10;;;;;;5051783;28;34089;-76
2022/08/17 00:47:07;;;;;;;3.75;3.08;;;18.00;18.20;;;;;;5084554;28;34232;-76
2022/08/17 00:49:33;;;;;;;3.63;3.30;;;18.00;18.30;;;;;;5067228;28;36319;-76
2022/08/17 00:52:07;;;;;;;3.58;3.25;;;18.10;18.40;;;;;;5084305;28;34949;-76
2022/08/17 00:54:38;;;;;;;5.85;2.97;;;18.00;18.80;;;;;;5084001;28;34178;-76
2022/08/17 00:57:23;;;;;;;3.50;3.20;;;18.00;18.60;;;;;;5084548;28;34482;-76
2022/08/17 00:59:55;;;;;;;3.97;3.33;;;18.00;20.80;;;;;;5084399;28;35603;-76
2022/08/17 01:02:21;;;;;;;3.92;3.00;;;18.00;18.50;;;;;;5084244;28;34167;-76
2022/08/17 01:04:51;;;;;;;5.03;3.25;;;18.00;18.70;;;;;;5079379;28;34207;-76
2022/08/17 01:07:20;;;;;;;3.25;2.95;;;18.00;18.80;;;;;;5076759;28;34279;-76
2022/08/17 01:09:47;;;;;;;3.15;2.85;;;18.00;18.60;;;;;;5097062;28;36375;-76
2022/08/17 01:12:13;;;;;;;3.47;3.10;;;18.00;18.90;;;;;;5079609;28;34174;-76
2022/08/17 01:14:40;;;;;;;3.30;3.00;;;18.10;19.00;;;;;;5082508;28;34128;-76
2022/08/17 01:17:07;;;;;;;6.30;3.42;;;18.00;19.00;;;;;;5085082;28;34156;-76
2022/08/17 01:19:37;;;;;;;3.38;3.05;;;18.00;19.00;;;;;;5066749;28;35883;-76
2022/08/17 01:22:21;;;;;;;6.18;3.17;;;18.00;19.10;;;;;;5063354;28;34195;-76
2022/08/17 01:24:52;;;;;;;3.42;3.13;;;18.10;21.70;;;;;;5065094;28;34457;-76
2022/08/17 01:27:20;;;;;;;4.18;3.30;;;18.10;19.40;;;;;;5081606;28;34057;-76
2022/08/17 01:29:51;;;;;;;4.03;3.10;;;18.10;19.30;;;;;;5104084;28;35741;-76
2022/08/17 01:32:18;;;;;;;4.20;3.40;;;18.10;19.40;;;;;;5076928;28;34109;-76
2022/08/17 01:34:44;;;;;;;4.75;3.58;;;18.10;19.00;;;;;;5074577;28;34155;-76
2022/08/17 01:37:13;;;;;;;6.97;3.53;;;18.10;19.30;;;;;;5083698;28;34024;-76
2022/08/17 01:39:49;;;;;;;3.70;2.88;;;18.10;19.30;;;;;;5066952;28;35570;-76
2022/08/17 01:42:35;;;;;;;3.97;3.28;;;18.10;20.20;;;;;;5083731;28;34258;-76
2022/08/17 01:45:10;;;;;;;3.38;3.08;;;18.10;20.90;;;;;;5083644;28;34201;-76
2022/08/17 01:47:36;;;;;;;3.53;3.20;;;18.10;19.80;;;;;;5084142;28;34328;-76
2022/08/17 01:50:14;;;;;;;4.07;3.35;;;18.10;19.40;;;;;;5082908;28;35539;-76
2022/08/17 01:52:44;;;;;;;7.65;3.70;;;18.10;20.20;;;;;;5083654;28;34249;-76
2022/08/17 01:55:12;;;;;;;5.45;3.45;;;18.10;19.70;;;;;;5083624;28;34162;-76
2022/08/17 01:57:38;;;;;;;4.80;3.63;;;18.10;19.70;;;;;;5084457;28;34112;-76
2022/08/17 02:00:09;;;;;;;3.97;3.40;;;18.10;19.50;;;;;;5083320;28;35894;-76
2022/08/17 02:02:34;;;;;;;4.70;3.33;;;18.20;19.70;;;;;;5067625;28;34239;-76
2022/08/17 02:05:01;;;;;;;3.78;3.40;;;18.20;19.50;;;;;;5082976;28;34361;-76
2022/08/17 02:07:27;;;;;;;3.80;3.40;;;18.20;19.50;;;;;;5083534;28;34530;-76
2022/08/17 02:09:55;;;;;;;3.35;3.05;;;18.20;19.40;;;;;;5096875;28;34075;-76
2022/08/17 02:12:22;;;;;;;3.40;3.10;;;18.20;19.50;;;;;;5104591;28;34229;-76
2022/08/17 02:14:49;;;;;;;3.90;3.42;;;18.20;19.50;;;;;;5103422;28;34221;-76
2022/08/17 02:17:15;;;;;;;4.18;3.50;;;18.30;19.70;;;;;;5088096;28;34792;-76
2022/08/17 02:19:41;;;;;;;3.65;3.35;;;18.20;19.80;;;;;;5066260;28;35790;-76
2022/08/17 02:22:07;;;;;;;4.60;3.45;;;18.20;19.90;;;;;;5065977;28;34302;-76
2022/08/17 02:24:36;;;;;;;4.10;3.67;;;18.20;20.00;;;;;;5066173;28;34243;-76
2022/08/17 02:27:02;;;;;;;4.22;3.55;;;18.20;20.10;;;;;;5083856;28;34268;-76
2022/08/17 02:29:28;;;;;;;4.30;3.28;;;18.20;20.00;;;;;;5083164;28;34143;-75
2022/08/17 02:31:57;;;;;;;3.78;3.30;;;18.20;20.00;;;;;;5097558;28;34180;-77
2022/08/17 02:34:24;;;;;;;5.70;3.33;;;18.20;20.00;;;;;;5086271;28;34052;-76
2022/08/17 02:36:52;;;;;;;4.65;3.83;;;18.20;20.00;;;;;;5082941;28;34813;-76
2022/08/17 02:39:18;;;;;;;3.83;3.15;;;18.30;20.00;;;;;;5049263;28;35695;-76
2022/08/17 02:41:44;;;;;;;3.60;3.30;;;18.30;20.10;;;;;;5084320;28;34135;-76
2022/08/17 02:44:11;;;;;;;4.15;3.38;;;18.30;20.00;;;;;;5082791;28;34193;-76
2022/08/17 02:46:36;;;;;;;3.70;3.20;;;18.30;20.10;;;;;;5065921;28;34412;-76
2022/08/17 02:49:04;;;;;;;6.70;3.38;;;18.30;20.00;;;;;;5065369;28;35741;-76
2022/08/17 02:51:30;;;;;;;3.75;3.42;;;18.30;20.10;;;;;;5082694;28;34094;-76
2022/08/17 02:53:56;;;;;;;5.25;3.60;;;18.30;20.10;;;;;;5083686;28;34065;-76
2022/08/17 02:56:22;;;;;;;3.88;3.47;;;18.30;20.20;;;;;;5083028;28;34094;-76
2022/08/17 02:58:48;;;;;;;3.63;3.33;;;18.20;20.10;;;;;;5066794;28;35969;-76
2022/08/17 03:01:14;;;;;;;6.30;3.80;;;18.20;20.10;;;;;;5082015;28;34079;-76
2022/08/17 03:03:41;;;;;;;5.70;3.65;;;18.20;20.30;;;;;;5086502;28;34223;-76
2022/08/17 03:06:12;;;;;;;3.50;3.20;;;18.20;20.40;;;;;;5092759;28;34586;-76
2022/08/17 03:08:39;;;;;;;4.78;3.45;;;18.20;20.30;;;;;;5102479;28;35878;-76
2022/08/17 03:11:05;;;;;;;3.92;3.60;;;18.20;20.20;;;;;;5086461;28;34242;-77
2022/08/17 03:13:31;;;;;;;3.97;3.40;;;18.10;21.90;;;;;;5093303;28;34266;-77
2022/08/17 03:15:58;;;;;;;5.53;4.00;;;18.10;21.90;;;;;;5086220;28;34375;-76
2022/08/17 03:18:24;;;;;;;6.55;4.10;;;18.10;22.00;;;;;;5084932;28;36651;-76
2022/08/17 03:20:51;;;;;;;5.55;3.63;;;18.20;21.80;;;;;;5103831;28;34229;-77
2022/08/17 03:23:17;;;;;;;7.20;3.83;;;18.20;21.90;;;;;;5085416;28;34313;-76
2022/08/17 03:25:44;;;;;;;5.45;3.55;;;18.30;21.80;;;;;;5103746;28;34362;-76
2022/08/17 03:28:11;;;;;;;4.32;3.92;;;18.40;21.60;;;;;;5074239;28;36450;-76
2022/08/17 03:30:37;;;;;;;3.88;3.40;;;18.40;21.50;;;;;;5100697;28;34253;-76
2022/08/17 03:33:08;;;;;;;4.00;3.60;;;18.40;21.60;;;;;;5085001;28;34291;-76
2022/08/17 03:35:36;;;;;;;4.85;3.67;;;18.50;21.70;;;;;;5085932;28;35002;-76
2022/08/17 03:38:03;;;;;;;3.80;3.40;;;18.50;21.50;;;;;;5085161;28;36563;-76
2022/08/17 03:40:30;;;;;;;4.78;3.75;;;18.50;21.60;;;;;;5087337;28;34145;-76
2022/08/17 03:42:56;;;;;;;3.67;3.30;;;18.50;21.50;;;;;;5088727;28;34207;-76
2022/08/17 03:59:13;;;;;;;3.55;3.20;;;18.50;21.60;;;;;;5106156;28;34109;-76
2022/08/17 04:01:39;;;;;;;4.75;3.60;;;18.60;21.60;;;;;;5071963;28;34118;-76
2022/08/17 04:04:06;;;;;;;3.92;3.53;;;18.50;22.20;;;;;;5106719;28;34270;-76
2022/08/17 04:06:32;;;;;;;4.50;3.70;;;18.60;21.60;;;;;;5107098;28;33784;-76
2022/08/17 04:08:58;;;;;;;4.30;3.70;;;18.60;21.60;;;;;;5087942;28;35913;-76
2022/08/17 04:11:24;;;;;;;3.75;3.25;;;18.60;21.60;;;;;;5071991;28;35146;-76
2022/08/17 04:13:50;;;;;;;3.67;3.38;;;18.60;21.60;;;;;;5106967;28;34382;-77
2022/08/17 04:16:16;;;;;;;5.60;3.95;;;18.60;21.80;;;;;;5088661;28;34285;-77
2022/08/17 04:18:42;;;;;;;4.20;3.60;;;18.50;21.60;;;;;;5105491;28;36271;-77
2022/08/17 04:21:08;;;;;;;4.97;3.97;;;18.50;21.70;;;;;;5068575;28;34087;-77
2022/08/17 04:23:35;;;;;;;5.25;3.63;;;18.50;21.90;;;;;;5068487;28;34191;-77
2022/08/17 04:26:01;;;;;;;4.63;3.70;;;18.60;21.60;;;;;;5074165;27;34405;-78
2022/08/17 04:28:28;;;;;;;5.32;3.80;;;18.60;21.90;;;;;;5089294;28;34143;-78
2022/08/17 04:30:55;;;;;;;5.00;3.78;;;18.60;22.10;;;;;;5108306;27;34385;-78
2022/08/17 04:33:24;;;;;;;4.68;3.75;;;18.60;22.10;;;;;;5071931;28;34283;-78
2022/08/17 04:35:52;;;;;;;5.03;3.90;;;18.60;22.60;;;;;;5088590;28;34475;-78
2022/08/17 04:38:23;;;;;;;5.47;4.07;;;18.60;22.30;;;;;;5088927;28;36292;-78
2022/08/17 04:43:32;;;;;;;4.60;4.10;;;18.70;22.40;;;;;;5111893;27;34161;-77
2022/08/17 04:46:03;;;;;;;4.07;3.67;;;18.60;22.50;;;;;;5108965;28;34331;-77
2022/08/17 04:48:33;;;;;;;4.00;3.58;;;18.70;22.60;;;;;;5073453;28;35964;-78
2022/08/17 04:51:01;;;;;;;4.93;4.32;;;18.70;22.50;;;;;;5071268;28;34100;-77
2022/08/17 04:53:27;;;;;;;4.45;3.80;;;18.70;22.30;;;;;;5091921;28;34215;-77
2022/08/17 04:55:54;;;;;;;5.78;3.70;;;18.70;22.30;;;;;;5081908;28;34424;-76
2022/08/17 04:58:20;;;;;;;4.22;3.78;;;18.70;22.60;;;;;;5072873;28;36612;-76
2022/08/17 05:00:47;;;;;;;5.13;4.00;;;18.80;22.70;;;;;;5094564;28;34571;-77
2022/08/17 05:03:13;;;;;;;5.13;4.20;;;18.80;22.70;;;;;;5105475;28;34397;-76
2022/08/17 05:05:48;;;;;;;4.80;3.90;;;18.80;22.50;;;;;;5105238;28;34100;-77
2022/08/17 05:08:16;;;;;;;5.50;3.85;;;18.80;22.80;;;;;;5075098;28;35625;-77
2022/08/17 05:10:43;;;;;;;4.03;3.53;;;18.90;22.40;;;;;;5094592;28;34193;-76
2022/08/17 05:13:14;;;;;;;4.32;3.88;;;18.90;22.70;;;;;;5105252;28;34218;-77
2022/08/17 05:15:41;;;;;;;5.00;4.10;;;18.90;22.70;;;;;;5105034;28;34104;-77
2022/08/17 05:18:08;;;;;;;5.63;4.15;;;18.90;22.70;;;;;;5074993;28;36318;-77
2022/08/17 05:20:36;;;;;;;4.97;4.00;;;18.90;22.90;;;;;;5071205;28;34096;-77
2022/08/17 05:23:06;;;;;;;4.40;3.92;;;18.90;22.70;;;;;;5076343;28;34299;-77
2022/08/17 05:25:36;;;;;;;4.70;4.00;;;18.90;23.30;;;;;;5067422;28;34597;-77
2022/08/17 05:28:03;;;;;;;4.70;3.75;;;18.90;23.20;;;;;;5067048;28;35069;-77
2022/08/17 05:30:30;;;;;;;4.80;4.03;;;19.00;22.70;;;;;;5067180;28;34139;-77
2022/08/17 05:33:01;;;;;;;7.47;3.67;;;19.00;22.90;;;;;;5066768;28;34275;-77
2022/08/17 05:35:30;;;;;;;3.95;3.55;;;19.00;22.90;;;;;;5089345;27;34359;-76
2022/08/17 05:37:56;;;;;;;4.55;4.05;;;19.00;23.00;;;;;;5106041;27;34153;-77
2022/08/17 05:40:24;;;;;;;3.80;3.50;;;19.00;22.60;;;;;;5087787;28;34216;-77
2022/08/17 05:42:52;;;;;;;4.22;3.55;;;19.00;23.10;;;;;;5050846;28;34360;-77
2022/08/17 05:45:20;;;;;;;5.78;3.97;;;19.00;23.20;;;;;;5059822;27;34211;-77
2022/08/17 05:47:46;;;;;;;4.75;3.78;;;19.00;23.30;;;;;;5078911;28;35732;-77
2022/08/17 05:50:24;;;;;;;5.75;4.50;;;19.00;23.30;;;;;;5095946;28;34477;-78
2022/08/17 05:53:13;;;;;;;6.35;4.38;;;19.00;24.30;;;;;;5105296;28;34316;-78
2022/08/17 05:55:52;;;;;;;6.20;3.90;;;19.00;25.00;;;;;;5087915;28;34295;-77
2022/08/17 05:58:36;;;;;;;6.25;4.10;;;19.00;24.30;;;;;;5090091;27;35651;-77
2022/08/17 06:01:25;;;;;;;4.03;3.53;;;19.00;23.90;;;;;;5074932;28;34163;-77
2022/08/17 06:04:08;;;;;;;5.72;4.30;;;19.00;23.80;;;;;;5065576;28;34404;-77
2022/08/17 06:06:53;;;;;;;5.00;4.43;;;19.00;23.90;;;;;;5066527;28;34220;-77
2022/08/17 06:09:40;;;;;;;5.45;4.32;;;19.00;24.50;;;;;;5050462;28;35746;-77
2022/08/17 06:12:37;;;;;;;4.30;3.90;;;19.00;25.30;;;;;;5049382;28;34180;-77
2022/08/17 06:15:27;;;;;;;5.90;3.90;;;19.00;25.40;;;;;;5079874;28;34128;-77
2022/08/17 06:17:58;;;;;;;4.95;4.05;;;19.00;25.60;;;;;;5086114;28;34607;-77
2022/08/17 06:20:31;;;;;;;11.48;3.95;;;19.00;23.70;;;;;;5069651;28;35700;-75
2022/08/17 06:23:03;;;;;;;5.20;3.95;;;19.00;23.60;;;;;;5099848;27;34193;-77
2022/08/17 06:25:37;;;;;;;5.13;4.22;;;19.00;24.40;;;;;;5084443;28;34190;-77
2022/08/17 06:28:09;;;;;;;4.80;4.30;;;19.10;24.10;;;;;;5105039;27;34257;-77
2022/08/17 06:30:45;;;;;;;5.40;3.88;;;19.00;24.50;;;;;;5078666;28;35801;-76
2022/08/17 06:33:19;;;;;;;5.22;4.72;;;19.10;24.50;;;;;;5081830;28;34197;-77
2022/08/17 06:36:09;;;;;;;5.05;4.43;;;19.10;24.40;;;;;;5105875;28;34110;-77
2022/08/17 06:38:56;;;;;;;7.82;4.55;;;19.10;25.80;;;;;;5083102;28;34191;-77
2022/08/17 06:41:52;;;;;;;4.95;4.35;;;19.10;26.00;;;;;;5088060;28;35561;-79
2022/08/17 06:44:42;;;;;;;5.13;4.40;;;19.20;26.40;;;;;;5088032;28;34083;-77
2022/08/17 06:47:19;;;;;;;5.28;4.78;;;19.20;26.60;;;;;;5086827;28;34273;-77
2022/08/17 06:49:59;;;;;;;7.75;4.47;;;19.20;24.10;;;;;;5078804;27;34199;-78
2022/08/17 06:52:33;;;;;;;8.32;4.57;;;19.20;24.50;;;;;;5087749;28;35485;-77
2022/08/17 06:55:19;;;;;;;4.75;4.25;;;19.20;24.60;;;;;;5060613;28;34106;-78
2022/08/17 06:57:50;;;;;;;4.82;4.32;;;19.30;26.70;;;;;;5088004;27;34154;-78
2022/08/17 07:00:21;;;;;;;4.82;4.35;;;19.30;24.70;;;;;;5118668;27;34317;-77
2022/08/17 07:03:05;;;;;;;4.90;4.40;;;19.30;24.80;;;;;;5115132;27;34461;-78
2022/08/17 07:05:41;;;;;;;5.50;4.72;;;19.30;27.10;;;;;;5084223;28;34313;-77
2022/08/17 07:08:33;;;;;;;7.55;4.85;;;19.30;25.50;;;;;;5104397;28;34535;-78
2022/08/17 07:11:07;;;;;;;6.38;4.47;;;19.40;28.30;;;;;;5085401;28;34726;-77
2022/08/17 07:13:57;;;;;;;9.57;5.18;;;19.30;25.90;;;;;;5067697;28;36406;-77
2022/08/17 07:16:31;;;;;;;5.68;4.90;;;19.40;27.60;;;;;;5109773;28;34062;-77
2022/08/17 07:18:58;;;;;;;4.95;4.53;;;19.40;25.60;;;;;;5071973;27;34299;-78
2022/08/17 07:21:55;;;;;;;5.45;4.60;;;19.50;25.40;;;;;;5115449;27;34122;-78
2022/08/17 07:24:57;;;;;;;7.10;4.88;;;19.50;28.10;;;;;;5082178;27;36073;-78
2022/08/17 07:27:29;;;;;;;11.32;5.00;;;19.60;28.10;;;;;;5100751;27;34223;-77
2022/08/17 07:30:06;;;;;;;7.00;5.45;;;19.60;25.50;;;;;;5086621;27;34235;-78
2022/08/17 07:32:44;;;;;;;6.88;5.00;;;19.60;26.50;;;;;;5094815;28;34072;-78
2022/08/17 07:35:19;;;;;;;6.50;4.90;;;19.60;26.70;;;;;;5093851;28;35743;-78
2022/08/17 07:37:54;;;;;;;5.07;4.40;;;19.60;26.00;;;;;;5083322;28;34233;-79
2022/08/17 07:40:32;;;;;;;5.55;4.93;;;19.70;25.90;;;;;;5078835;27;34242;-78
2022/08/17 07:43:04;;;;;;;5.65;4.60;;;19.70;27.10;;;;;;5062087;28;34276;-78
2022/08/17 07:48:18;;;;;;;6.03;5.00;;;19.80;25.90;;;;;;5116048;27;34189;-79
2022/08/17 07:50:45;;;;;;;6.05;4.93;;;19.80;26.30;;;;;;5094764;27;34295;-79
2022/08/17 07:53:22;;;;;;;9.23;4.57;;;19.90;25.70;;;;;;5050505;28;34665;-77
2022/08/17 07:55:49;;;;;;;8.13;5.25;;;20.00;27.50;;;;;;5062297;27;35559;-78
2022/08/17 07:58:18;;;;;;;7.10;4.70;;;20.10;25.50;;;;;;5094591;28;35321;-78
2022/08/17 08:01:03;;;;;;;5.50;4.75;;;20.20;26.00;;;;;;5094663;28;34254;-78
2022/08/17 08:03:30;;;;;;;6.47;5.00;;;20.30;25.60;;;;;;5093513;28;34415;-79
2022/08/17 08:06:00;;;;;;;6.07;5.20;;;20.40;25.00;;;;;;5089426;28;35840;-78
2022/08/17 08:08:32;;;;;;;7.53;4.72;;;20.50;25.50;;;;;;5092778;28;34318;-78
2022/08/17 08:11:27;;;;;;;5.22;4.72;;;20.50;25.90;;;;;;5095156;28;34129;-77
2022/08/17 08:13:53;;;;;;;6.45;5.50;;;20.60;27.40;;;;;;5079187;27;34155;-78
2022/08/17 08:16:25;;;;;;;6.60;4.88;;;20.60;25.80;;;;;;5100357;27;35968;-78
2022/08/17 08:18:55;;;;;;;6.28;4.95;;;20.50;25.80;;;;;;5101667;28;34114;-78
2022/08/17 08:21:46;;;;;;;7.25;5.43;;;20.50;25.90;;;;;;5090958;28;34179;-78
2022/08/17 08:24:36;;;;;;;6.03;4.75;;;20.50;26.70;;;;;;5089263;28;35295;-78
2022/08/17 08:27:25;;;;;;;7.55;5.30;;;20.50;26.90;;;;;;5090249;28;36438;-78
2022/08/17 08:30:06;;;;;;;6.18;5.28;;;20.50;27.60;;;;;;5077343;28;34172;-78
2022/08/17 08:32:52;;;;;;;6.25;5.10;;;20.60;26.60;;;;;;5096999;28;34384;-78
2022/08/17 08:35:30;;;;;;;6.95;5.57;;;20.50;26.90;;;;;;5090308;28;34185;-77
2022/08/17 08:38:13;;;;;;;5.45;4.80;;;20.60;26.10;;;;;;5091648;28;36361;-79
2022/08/17 08:41:08;;;;;;;7.18;5.22;;;20.70;26.70;;;;;;5088496;28;34137;-79
2022/08/17 08:44:05;;;;;;;7.80;5.20;;;20.80;27.40;;;;;;5106084;28;34194;-78
2022/08/17 08:46:47;;;;;;;5.75;5.15;;;20.90;27.10;;;;;;5094691;27;35613;-78
2022/08/17 08:49:44;;;;;;;6.32;4.82;;;21.00;25.70;;;;;;5101223;28;35601;-78
2022/08/17 08:52:35;;;;;;;6.97;4.82;;;21.10;25.90;;;;;;5089215;27;34420;-77
2022/08/17 08:55:34;;;;;;;6.03;5.05;;;21.30;26.00;;;;;;5096453;27;34304;-78
2022/08/17 08:58:07;;;;;;;7.28;5.75;;;21.50;27.90;;;;;;5107309;27;34324;-78
2022/08/17 09:00:37;;;;;;;6.90;5.53;;;21.50;24.90;;;;;;5090315;28;35684;-78
2022/08/17 09:03:36;;;;;;;8.32;5.82;;;21.50;24.90;;;;;;5080347;28;33997;-77
2022/08/17 09:06:22;;;;;;;6.80;5.70;;;21.70;26.80;;;;;;5078872;28;34317;-78
2022/08/17 09:09:03;;;;;;;7.45;5.63;;;21.80;25.80;;;;;;5086921;27;34121;-77
2022/08/17 09:11:45;;;;;;;8.82;4.93;;;21.90;25.40;;;;;;5068664;28;35920;-80
2022/08/17 09:14:27;;;;;;;9.25;7.20;;;22.10;25.10;;;;;;5070110;28;34055;-78
2022/08/17 09:17:03;;;;;;;6.90;5.38;;;22.10;24.00;;;;;;5085467;28;34325;-78
2022/08/17 09:19:48;;;;;;;6.13;5.50;;;22.10;23.60;;;;;;5091173;28;34504;-78
2022/08/17 09:22:38;;;;;;;6.28;5.60;;;22.20;23.50;;;;;;5095162;28;35682;-79
2022/08/17 09:25:14;;;;;;;5.57;4.97;;;22.20;23.80;;;;;;5096317;28;34246;-78
2022/08/17 09:27:56;;;;;;;6.43;4.60;;;22.20;23.30;;;;;;5093390;28;34585;-78
2022/08/17 09:30:26;;;;;;;5.60;5.10;;;22.20;24.20;;;;;;5107061;28;34015;-78
2022/08/17 09:32:58;;;;;;;6.90;5.60;;;22.30;23.50;;;;;;5070886;28;35489;-79
2022/08/17 09:35:38;;;;;;;6.78;5.60;;;22.30;24.00;;;;;;5091061;28;35564;-78
2022/08/17 09:38:18;;;;;;;5.80;4.68;;;22.30;24.10;;;;;;5072258;28;34249;-78
2022/08/17 09:40:54;;;;;;;6.97;5.88;;;22.40;24.20;;;;;;5072430;28;34100;-78
2022/08/17 09:43:36;;;;;;;8.05;6.25;;;22.40;23.40;;;;;;5089853;28;35998;-78
2022/08/17 09:46:10;;;;;;;5.43;4.93;;;22.50;23.80;;;;;;5069351;28;34067;-78
2022/08/17 09:48:44;;;;;;;6.55;5.18;;;22.50;23.90;;;;;;5082862;28;34199;-78
2022/08/17 09:51:29;;;;;;;8.65;6.07;;;22.50;23.60;;;;;;5095036;28;34566;-78
2022/08/17 09:53:57;;;;;;;6.95;6.00;;;22.50;23.20;;;;;;5108865;28;34377;-79
2022/08/17 09:56:50;;;;;;;8.60;5.75;;;22.50;23.00;;;;;;5074378;28;33807;-77
2022/08/17 09:59:37;;;;;;;6.45;5.55;;;22.50;23.80;;;;;;5068770;28;34248;-78
2022/08/17 10:02:25;;;;;;;7.18;5.70;;;22.60;24.20;;;;;;5087534;28;34083;-79
2022/08/17 10:05:07;;;;;;;7.97;6.07;;;22.50;24.50;;;;;;5084797;28;35730;-77
2022/08/17 10:07:58;;;;;;;8.68;6.10;;;22.70;23.90;;;;;;5072149;28;34099;-78
2022/08/17 10:10:32;;;;;;;8.55;6.28;;;22.80;23.80;;;;;;5066570;28;34373;-78
2022/08/17 10:13:21;;;;;;;7.43;6.35;;;22.80;22.70;;;;;;5088961;28;34455;-76
2022/08/17 10:16:02;;;;;;;7.13;6.45;;;22.90;23.20;;;;;;5087858;28;36730;-77
2022/08/17 10:18:53;;;;;;;7.50;6.10;;;22.80;23.10;;;;;;5105386;28;34456;-77
2022/08/17 10:27:11;;;;;;;6.95;6.05;;;22.70;23.20;;;;;;5105335;28;34659;-76
2022/08/17 10:29:47;;;;;;;6.40;5.75;;;22.60;22.20;;;;;;5087140;28;34159;-76
2022/08/17 10:32:27;;;;;;;7.72;6.22;;;22.60;22.30;;;;;;5103983;28;34305;-76
2022/08/17 10:35:28;;;;;;;7.18;5.70;;;22.50;22.80;;;;;;5087520;28;34110;-76
2022/08/17 10:38:22;;;;;;;6.60;5.82;;;22.60;23.20;;;;;;5086474;28;35904;-76
2022/08/17 10:40:57;;;;;;;6.70;6.00;;;22.70;23.00;;;;;;5105137;28;34256;-77
2022/08/17 10:43:43;;;;;;;8.02;6.18;;;22.90;22.20;;;;;;5104981;28;34165;-77
2022/08/17 10:46:26;;;;;;;9.23;6.22;;;23.00;22.40;;;;;;5088911;28;34569;-76
2022/08/17 10:49:13;;;;;;;7.35;6.65;;;23.00;22.70;;;;;;5075187;28;35917;-76
2022/08/17 10:51:40;;;;;;;9.52;6.15;;;23.10;23.50;;;;;;5069643;28;35778;-76
2022/08/17 10:54:46;;;;;;;7.75;6.20;;;23.20;22.20;;;;;;5104551;28;34094;-76
2022/08/17 10:57:34;;;;;;;7.32;6.63;;;23.30;23.70;;;;;;5061050;28;34036;-77
2022/08/17 11:00:09;;;;;;;6.75;6.05;;;23.60;21.70;;;;;;5097681;28;36007;-77
2022/08/17 11:02:51;;;;;;;7.20;6.10;;;23.70;21.60;;;;;;5084190;28;34233;-77
2022/08/17 11:05:40;;;;;;;8.15;5.88;;;24.10;22.50;;;;;;5086456;28;34455;-76
2022/08/17 11:08:44;;;;;;;7.03;5.90;;;24.30;20.80;;;;;;5072588;28;34012;-76
2022/08/17 11:11:42;;;;;;;6.78;6.00;;;24.60;21.00;;;;;;5074657;28;35725;-76
2022/08/17 11:14:34;;;;;;;6.13;5.38;;;24.90;20.70;;;;;;5104462;28;34113;-77
2022/08/17 11:17:25;;;;;;;8.35;6.38;;;25.20;17.40;;;;;;5085915;28;34106;-76
2022/08/17 11:20:26;;;;;;;7.22;5.75;;;25.60;19.20;;;;;;5086319;28;34152;-77
2022/08/17 11:23:28;;;;;;;6.63;5.57;;;26.20;18.30;;;;;;5090254;28;34201;-78
2022/08/17 11:25:57;;;;;;;6.25;5.65;;;26.90;18.40;;;;;;5074725;28;34125;-77
2022/08/17 11:28:33;;;;;;;8.32;5.50;;;27.30;16.00;;;;;;5069306;28;34439;-76
2022/08/17 11:31:08;;;;;;;5.20;4.70;;;27.60;16.20;;;;;;5070192;28;34122;-77
2022/08/17 11:33:52;;;;;;;5.55;5.00;;;27.70;13.60;;;;;;5068987;28;36536;-77
2022/08/17 11:36:41;;;;;;;4.68;4.15;;;28.00;12.40;;;;;;5104481;28;34484;-77
2022/08/17 11:39:29;;;;;;;4.63;4.13;;;28.30;13.40;;;;;;5088015;28;34258;-77
2022/08/17 11:42:05;;;;;;;4.15;3.75;;;28.60;9.90;;;;;;5101609;28;34551;-77
2022/08/17 11:44:45;;;;;;;4.00;3.53;;;28.60;12.70;;;;;;5086875;28;36125;-77
2022/08/17 11:54:00;;;;;;;4.30;3.92;;;28.90;9.50;;;;;;5091900;28;34258;-77
2022/08/17 11:56:34;;;;;;;6.85;4.07;;;29.00;9.60;;;;;;5069754;28;35503;-77
2022/08/17 11:59:01;;;;;;;3.70;3.40;;;29.20;11.00;;;;;;5069826;28;34191;-79
2022/08/17 12:01:51;;;;;;;5.53;3.38;;;29.30;12.10;;;;;;5087024;28;34086;-75
2022/08/17 12:04:27;;;;;;;3.47;3.17;;;29.40;8.30;;;;;;5107752;28;34577;-75
2022/08/17 12:07:12;;;;;;;3.65;3.35;;;29.50;8.20;;;;;;5088923;28;36427;-76
2022/08/17 12:09:43;;;;;;;4.82;4.43;;;29.60;8.90;;;;;;5089277;28;34388;-75
2022/08/17 12:12:15;;;;;;;4.93;3.40;;;29.60;10.00;;;;;;5088743;28;34623;-76
2022/08/17 12:14:50;;;;;;;3.60;3.20;;;29.40;8.90;;;;;;5089132;28;34213;-75
2022/08/17 12:17:22;;;;;;;4.30;2.97;;;29.30;8.60;;;;;;5088172;28;35827;-76
2022/08/17 12:19:48;;;;;;;3.13;2.65;;;29.40;7.20;;;;;;5090168;28;34134;-75
2022/08/17 12:22:25;;;;;;;3.67;3.05;;;29.40;9.40;;;;;;5088593;28;34482;-77
2022/08/17 12:25:12;;;;;;;4.93;3.17;;;29.50;7.10;;;;;;5089273;28;34419;-77
2022/08/17 12:27:46;;;;;;;3.22;2.92;;;29.60;4.50;;;;;;5090163;28;34235;-76
2022/08/17 12:30:16;;;;;;;3.70;3.30;;;29.70;6.90;;;;;;5073308;28;34196;-76
2022/08/17 12:32:46;;;;;;;3.25;2.90;;;29.70;7.70;;;;;;5072316;28;34172;-77
2022/08/17 12:35:23;;;;;;;3.00;2.70;;;29.80;9.20;;;;;;5089089;28;34540;-76
2022/08/17 12:37:50;;;;;;;4.65;2.97;;;29.90;5.20;;;;;;5055878;28;35580;-76
2022/08/17 12:40:22;;;;;;;4.07;2.75;;;30.10;8.00;;;;;;5088779;28;34175;-76
2022/08/17 12:42:59;;;;;;;4.05;2.88;;;30.10;4.00;;;;;;5052794;28;34121;-76
2022/08/17 12:45:30;;;;;;;3.03;2.30;;;30.10;5.00;;;;;;5068427;28;34218;-76
2022/08/17 12:48:07;;;;;;;2.80;2.60;;;29.90;6.00;;;;;;5068869;28;35488;-76
2022/08/17 12:50:37;;;;;;;2.55;2.35;;;29.70;1.60;;;;;;5085608;28;34049;-75
2022/08/17 12:53:12;;;;;;;3.25;2.33;;;29.50;6.50;;;;;;5085147;28;34147;-76
2022/08/17 12:55:40;;;;;;;3.83;2.90;;;29.50;7.00;;;;;;5086753;28;34288;-77
2022/08/17 12:58:11;;;;;;;3.25;2.45;;;29.50;6.70;;;;;;5101693;28;34126;-77
2022/08/17 13:00:40;;;;;;;2.55;2.35;;;29.60;4.40;;;;;;5088793;28;34083;-78
2022/08/17 13:03:18;;;;;;;2.30;2.13;;;29.50;5.90;;;;;;5088322;28;34017;-76
2022/08/17 13:06:02;;;;;;;2.53;2.33;;;29.40;5.80;;;;;;5088304;28;34020;-75
2022/08/17 13:08:35;;;;;;;2.67;2.47;;;29.20;4.80;;;;;;5088385;28;35992;-75
2022/08/17 13:11:05;;;;;;;3.15;2.50;;;29.20;5.40;;;;;;5071477;28;34102;-76
2022/08/17 13:13:34;;;;;;;3.22;2.40;;;29.40;5.10;;;;;;5088020;28;34139;-76
2022/08/17 13:16:04;;;;;;;2.50;2.30;;;29.60;5.50;;;;;;5071264;28;34292;-77
2022/08/17 13:18:47;;;;;;;3.22;2.92;;;29.80;5.40;;;;;;5087592;28;35539;-77
2022/08/17 13:21:25;;;;;;;4.20;2.58;;;29.80;2.40;;;;;;5088600;28;34039;-75
2022/08/17 13:23:55;;;;;;;2.70;2.50;;;29.60;3.10;;;;;;5071176;28;34266;-75
2022/08/17 13:26:28;;;;;;;2.60;2.40;;;29.40;5.00;;;;;;5106241;28;34242;-76
2022/08/17 13:28:54;;;;;;;2.97;2.75;;;29.10;5.10;;;;;;5088230;28;35803;-77
2022/08/17 13:31:38;;;;;;;3.20;2.90;;;29.00;6.20;;;;;;5088101;28;34283;-76
2022/08/17 13:34:28;;;;;;;3.05;2.83;;;28.80;4.10;;;;;;5068517;28;34317;-76
2022/08/17 13:37:27;;;;;;;3.40;3.10;;;28.70;6.10;;;;;;5088332;28;34654;-75
2022/08/17 13:40:29;;;;;;;3.85;2.65;;;28.70;3.40;;;;;;5106092;28;35463;-76
2022/08/17 13:42:56;;;;;;;2.90;2.70;;;28.60;4.40;;;;;;5098618;28;34251;-76
2022/08/17 13:45:35;;;;;;;3.00;2.70;;;28.60;6.00;;;;;;5088703;28;34059;-76
2022/08/17 13:48:21;;;;;;;3.40;2.90;;;28.70;4.20;;;;;;5063494;28;34361;-77
2022/08/17 13:51:04;;;;;;;2.65;2.45;;;28.70;2.00;;;;;;5084563;28;34441;-77
2022/08/17 13:53:50;;;;;;;3.00;2.78;;;28.80;3.20;;;;;;5089531;28;34116;-76
2022/08/17 13:56:37;;;;;;;3.10;2.70;;;28.80;5.00;;;;;;5088008;28;34488;-78
2022/08/17 13:59:09;;;;;;;2.78;2.50;;;28.80;3.90;;;;;;5106940;28;34121;-76